Time;durP1;ratioP1;P1;durP2;ratioP2;P2;SDS_P1;SDS_P2;PMS_P1;PMS_P2;Temp;Humidity;BMP_temperature;BMP_pressure;BME280_temperature;BME280_humidity;BME280_pressure;Samples;Min_cycle;Max_cycle;Signal;HPM_P1;HPM_P2
2022/05/27 00:00:44;;;;;;;6.13;3.22;;;24.30;90.20;;;;;;5017914;28;20051;-79
2022/05/27 00:03:13;;;;;;;6.30;4.05;;;24.30;90.00;;;;;;5018885;28;20502;-80
2022/05/27 00:05:42;;;;;;;10.50;3.50;;;24.20;90.10;;;;;;5051577;28;20084;-80
2022/05/27 00:08:11;;;;;;;7.50;3.72;;;24.20;90.30;;;;;;5017985;28;20041;-80
2022/05/27 00:10:38;;;;;;;6.45;2.75;;;24.20;90.50;;;;;;5031875;28;20100;-79
2022/05/27 00:13:07;;;;;;;11.00;4.20;;;24.10;90.70;;;;;;5031294;28;20103;-81
2022/05/27 00:15:35;;;;;;;7.00;3.17;;;24.10;90.80;;;;;;5031147;28;20600;-81
2022/05/27 00:18:03;;;;;;;5.93;3.92;;;24.10;90.70;;;;;;5015162;28;20506;-80
2022/05/27 00:20:31;;;;;;;5.35;3.20;;;24.00;90.60;;;;;;5015468;28;20127;-80
2022/05/27 00:22:59;;;;;;;7.82;3.65;;;24.00;90.60;;;;;;5032060;28;20151;-80
2022/05/27 00:25:27;;;;;;;7.20;3.42;;;24.00;90.60;;;;;;4998804;28;20075;-80
2022/05/27 00:27:55;;;;;;;6.72;3.45;;;24.00;90.70;;;;;;4998224;28;20053;-80
2022/05/27 00:30:24;;;;;;;7.40;4.30;;;24.00;90.60;;;;;;5030952;28;20124;-81
2022/05/27 00:32:52;;;;;;;8.93;4.05;;;24.00;90.50;;;;;;5030947;28;20164;-80
2022/05/27 00:35:19;;;;;;;6.80;5.00;;;24.00;90.50;;;;;;5031343;28;20125;-79
2022/05/27 00:37:47;;;;;;;6.85;4.18;;;24.00;90.50;;;;;;5031167;28;20129;-80
2022/05/27 00:40:16;;;;;;;11.27;4.45;;;23.90;90.60;;;;;;5030696;28;20045;-79
2022/05/27 00:42:46;;;;;;;7.47;4.30;;;23.90;90.60;;;;;;4997776;28;20068;-80
2022/05/27 00:45:17;;;;;;;12.43;4.80;;;23.90;90.60;;;;;;5014500;28;20049;-79
2022/05/27 00:47:47;;;;;;;9.43;5.40;;;23.80;90.50;;;;;;4998622;28;20125;-80
2022/05/27 00:50:18;;;;;;;13.27;5.00;;;23.70;90.60;;;;;;5014845;28;20115;-80
2022/05/27 00:52:48;;;;;;;9.07;4.80;;;23.70;90.60;;;;;;5014252;28;20088;-80
2022/05/27 00:55:22;;;;;;;11.68;5.10;;;23.60;90.30;;;;;;5031884;28;20061;-79
2022/05/27 00:58:13;;;;;;;8.55;5.10;;;23.60;90.10;;;;;;5030358;28;20474;-79
2022/05/27 01:00:40;;;;;;;10.57;6.28;;;23.50;90.00;;;;;;5031645;28;20045;-80
2022/05/27 01:03:11;;;;;;;10.85;5.70;;;23.50;89.80;;;;;;5013758;28;20045;-80
2022/05/27 01:05:47;;;;;;;9.40;4.22;;;23.50;89.40;;;;;;4997813;28;20049;-80
2022/05/27 01:08:18;;;;;;;7.15;4.57;;;23.40;88.90;;;;;;5032827;28;20406;-80
2022/05/27 01:11:05;;;;;;;9.20;4.80;;;23.40;88.70;;;;;;5018270;28;20095;-80
2022/05/27 01:13:55;;;;;;;9.60;4.68;;;23.40;88.40;;;;;;5034291;28;20052;-79
2022/05/27 01:16:36;;;;;;;9.38;4.78;;;23.40;88.10;;;;;;5034026;28;20195;-79
2022/05/27 01:22:31;;;;;;;9.60;6.00;;;23.40;87.50;;;;;;5049940;28;20091;-79
2022/05/27 01:25:08;;;;;;;9.98;6.10;;;23.40;87.20;;;;;;5016975;28;20091;-79
2022/05/27 01:27:59;;;;;;;28.10;19.48;;;23.50;87.00;;;;;;5017159;28;20041;-79
2022/05/27 01:30:47;;;;;;;38.17;32.92;;;23.50;87.00;;;;;;5033503;28;20144;-80
2022/05/27 01:33:33;;;;;;;22.67;20.02;;;23.60;86.80;;;;;;5010221;28;20080;-79
2022/05/27 01:36:19;;;;;;;14.65;10.88;;;23.60;86.70;;;;;;5013528;28;20049;-80
2022/05/27 01:39:02;;;;;;;;;;;23.60;86.30;;;;;;5014060;28;20399;-79
2022/05/27 01:41:43;;;;;;;10.77;6.53;;;23.60;86.30;;;;;;5029012;28;20008;-80
2022/05/27 01:44:28;;;;;;;13.05;9.70;;;23.60;86.20;;;;;;4997017;28;20065;-79
2022/05/27 01:46:56;;;;;;;17.47;11.63;;;23.60;85.90;;;;;;5013579;28;20127;-79
2022/05/27 01:49:30;;;;;;;14.00;11.75;;;23.60;85.80;;;;;;5029602;28;20513;-79
2022/05/27 01:52:29;;;;;;;11.88;9.15;;;23.60;85.70;;;;;;4996857;28;20055;-79
2022/05/27 01:55:20;;;;;;;17.67;10.98;;;23.60;86.40;;;;;;5012956;28;20499;-80
2022/05/27 01:58:06;;;;;;;17.05;11.68;;;23.60;87.80;;;;;;5028669;28;20049;-80
2022/05/27 02:00:35;;;;;;;;;;;23.60;88.80;;;;;;5029867;28;20045;-80
2022/05/27 02:03:32;;;;;;;12.30;8.52;;;23.60;89.50;;;;;;5013520;28;19924;-80
2022/05/27 02:06:08;;;;;;;11.55;7.97;;;23.60;89.90;;;;;;5013201;28;20045;-79
2022/05/27 02:08:38;;;;;;;;;;;23.60;90.00;;;;;;5013935;28;20041;-80
2022/05/27 02:11:21;;;;;;;13.48;6.80;;;23.50;90.20;;;;;;5013395;28;20027;-80
2022/05/27 02:14:06;;;;;;;9.35;6.53;;;23.40;89.30;;;;;;5029613;28;20100;-79
2022/05/27 02:16:57;;;;;;;10.98;6.75;;;23.30;88.50;;;;;;5029632;28;20063;-78
2022/05/27 02:19:39;;;;;;;10.32;5.90;;;23.20;88.60;;;;;;5029637;28;20059;-80
2022/05/27 02:22:15;;;;;;;7.90;5.80;;;23.10;88.80;;;;;;5045922;28;20140;-79
2022/05/27 02:24:46;;;;;;;9.13;4.95;;;22.90;89.10;;;;;;5029263;28;20411;-80
2022/05/27 02:27:44;;;;;;;8.73;5.75;;;22.90;89.50;;;;;;5029614;28;20053;-80
2022/05/27 02:30:14;;;;;;;9.65;5.07;;;22.80;89.90;;;;;;4996020;28;20415;-79
2022/05/27 02:32:48;;;;;;;11.02;5.75;;;22.70;90.00;;;;;;5012681;28;20058;-79
2022/05/27 02:35:21;;;;;;;9.07;5.25;;;22.70;90.00;;;;;;5029371;28;20057;-79
2022/05/27 02:37:55;;;;;;;10.18;5.43;;;22.60;90.00;;;;;;5012286;28;20172;-79
2022/05/27 02:40:30;;;;;;;7.63;5.25;;;22.60;90.10;;;;;;5029072;28;20045;-79
2022/05/27 02:43:30;;;;;;;9.27;5.93;;;22.50;90.20;;;;;;5029284;28;20037;-79
2022/05/27 02:46:16;;;;;;;9.88;5.35;;;22.50;90.30;;;;;;5032090;28;20057;-80
2022/05/27 02:48:53;;;;;;;8.55;5.38;;;22.50;90.40;;;;;;5032275;28;20048;-80
2022/05/27 02:51:26;;;;;;;6.68;5.03;;;22.50;90.50;;;;;;5013955;28;20057;-79
2022/05/27 02:54:07;;;;;;;8.27;4.80;;;22.50;90.50;;;;;;5028885;28;20045;-80
2022/05/27 02:56:46;;;;;;;11.63;4.80;;;22.60;90.50;;;;;;5028944;28;20504;-79
2022/05/27 02:59:17;;;;;;;9.30;5.13;;;22.60;90.50;;;;;;5028616;28;20526;-80
2022/05/27 03:01:46;;;;;;;8.75;5.93;;;22.70;90.60;;;;;;5022942;28;20041;-79
2022/05/27 03:04:20;;;;;;;6.10;4.53;;;22.70;90.60;;;;;;5012610;28;20122;-79
2022/05/27 03:07:03;;;;;;;7.45;5.38;;;22.70;90.70;;;;;;5029167;28;20053;-79
2022/05/27 03:09:33;;;;;;;10.35;5.50;;;22.80;90.70;;;;;;5028842;28;20075;-80
2022/05/27 03:12:31;;;;;;;12.40;5.10;;;22.80;90.70;;;;;;5028584;28;20500;-79
2022/05/27 03:15:02;;;;;;;10.15;6.00;;;22.80;90.70;;;;;;4996587;28;20052;-79
2022/05/27 03:17:33;;;;;;;8.10;5.88;;;22.90;90.60;;;;;;5028837;28;20136;-79
2022/05/27 03:20:23;;;;;;;8.38;5.57;;;22.90;90.60;;;;;;5028663;28;20056;-79
2022/05/27 03:23:21;;;;;;;10.63;6.97;;;23.00;90.60;;;;;;5028539;28;20809;-79
2022/05/27 03:26:05;;;;;;;8.55;5.70;;;23.00;90.60;;;;;;5029131;28;20395;-79
2022/05/27 03:28:59;;;;;;;9.43;6.30;;;23.00;90.70;;;;;;5028669;28;20136;-79
2022/05/27 03:32:01;;;;;;;12.00;5.90;;;23.00;90.70;;;;;;5019448;28;20387;-79
2022/05/27 03:34:39;;;;;;;10.45;5.72;;;23.00;90.60;;;;;;5045827;28;20466;-80
2022/05/27 03:37:10;;;;;;;9.48;5.10;;;23.00;90.70;;;;;;5039414;28;20079;-79
2022/05/27 03:39:56;;;;;;;10.73;5.45;;;23.10;90.80;;;;;;5039445;28;20856;-79
2022/05/27 03:42:25;;;;;;;15.30;5.45;;;23.10;90.90;;;;;;5071873;28;20068;-79
2022/05/27 03:45:02;;;;;;;10.60;6.15;;;23.10;91.10;;;;;;5071939;28;20111;-79
2022/05/27 03:47:29;;;;;;;10.02;5.65;;;23.10;91.20;;;;;;5072016;28;20704;-79
2022/05/27 03:49:57;;;;;;;8.68;4.30;;;23.20;91.20;;;;;;5058792;28;20044;-81
2022/05/27 03:52:30;;;;;;;7.90;5.28;;;23.20;91.30;;;;;;5075671;28;20139;-79
2022/05/27 03:54:57;;;;;;;8.18;4.95;;;23.30;91.30;;;;;;5093648;28;20130;-79
2022/05/27 03:57:25;;;;;;;8.30;5.18;;;23.30;91.30;;;;;;5058642;28;20081;-79
2022/05/27 03:59:53;;;;;;;9.70;5.63;;;23.30;91.40;;;;;;5075096;28;20538;-77
2022/05/27 04:02:20;;;;;;;9.50;5.03;;;23.40;91.50;;;;;;5042150;28;20462;-77
2022/05/27 04:04:48;;;;;;;9.80;4.63;;;23.40;91.50;;;;;;5042098;28;20440;-79
2022/05/27 04:07:15;;;;;;;10.65;4.30;;;23.40;91.50;;;;;;5058417;28;20535;-79
2022/05/27 04:09:43;;;;;;;8.13;5.40;;;23.50;91.50;;;;;;5074938;28;20098;-81
2022/05/27 04:12:13;;;;;;;8.70;5.30;;;23.60;91.50;;;;;;5092546;28;20040;-80
2022/05/27 04:14:40;;;;;;;9.43;5.18;;;23.70;91.50;;;;;;5058290;28;20101;-79
2022/05/27 04:19:54;;;;;;;9.07;5.22;;;23.80;91.50;;;;;;5092747;28;20044;-80
2022/05/27 04:22:21;;;;;;;7.80;6.28;;;23.90;91.50;;;;;;5052607;28;20059;-78
2022/05/27 04:24:49;;;;;;;12.68;7.00;;;24.00;91.50;;;;;;5072557;28;20052;-79
2022/05/27 04:27:18;;;;;;;11.00;6.03;;;24.00;91.50;;;;;;5054815;28;20187;-79
2022/05/27 04:29:50;;;;;;;15.80;6.70;;;24.20;91.50;;;;;;5038179;28;20244;-79
2022/05/27 04:32:18;;;;;;;11.10;6.22;;;24.30;91.50;;;;;;5053984;28;20048;-79
2022/05/27 04:34:46;;;;;;;10.88;5.65;;;24.30;91.40;;;;;;5054639;28;20157;-79
2022/05/27 04:37:13;;;;;;;13.20;6.13;;;24.40;91.40;;;;;;5022154;28;20400;-79
2022/05/27 04:39:41;;;;;;;9.05;5.20;;;24.50;91.30;;;;;;5054601;28;20509;-79
2022/05/27 04:42:09;;;;;;;11.48;6.55;;;24.60;91.20;;;;;;5037665;28;20415;-79
2022/05/27 04:44:37;;;;;;;12.43;6.18;;;24.70;91.20;;;;;;5021623;28;20052;-79
2022/05/27 04:47:05;;;;;;;11.52;5.50;;;24.70;91.10;;;;;;5071258;28;20391;-79
2022/05/27 04:49:53;;;;;;;10.68;7.03;;;24.80;91.10;;;;;;5038124;28;20037;-80
2022/05/27 04:52:25;;;;;;;11.20;6.15;;;24.80;91.00;;;;;;5071825;28;20402;-77
2022/05/27 04:54:54;;;;;;;10.15;6.97;;;24.90;91.00;;;;;;5071951;28;20071;-77
2022/05/27 04:57:25;;;;;;;10.43;6.25;;;25.00;90.90;;;;;;5037735;28;20078;-77
2022/05/27 04:59:53;;;;;;;12.05;6.55;;;25.10;90.70;;;;;;5053767;28;20036;-76
2022/05/27 05:02:23;;;;;;;10.15;6.75;;;25.10;90.20;;;;;;5071310;28;20056;-78
2022/05/27 05:04:51;;;;;;;17.88;7.55;;;25.20;90.00;;;;;;5053532;28;20049;-76
2022/05/27 05:07:22;;;;;;;10.43;6.53;;;25.30;89.70;;;;;;5037430;28;20083;-76
2022/05/27 05:09:50;;;;;;;9.52;6.80;;;25.40;89.50;;;;;;5061266;28;20035;-77
2022/05/27 05:12:22;;;;;;;12.07;6.70;;;25.60;89.10;;;;;;5040452;28;20097;-77
2022/05/27 05:14:51;;;;;;;12.10;7.32;;;25.70;88.20;;;;;;5073832;28;20054;-77
2022/05/27 05:17:20;;;;;;;15.73;9.07;;;25.80;87.60;;;;;;5057170;28;20093;-76
2022/05/27 05:19:48;;;;;;;11.32;6.30;;;26.00;87.40;;;;;;5040322;28;20432;-78
2022/05/27 05:22:15;;;;;;;10.07;6.45;;;26.20;87.50;;;;;;5056761;28;20040;-76
2022/05/27 05:24:44;;;;;;;12.95;7.15;;;26.30;86.90;;;;;;5073549;28;20119;-76
2022/05/27 05:27:11;;;;;;;11.30;6.40;;;26.40;86.90;;;;;;5072810;28;20040;-77
2022/05/27 05:29:39;;;;;;;13.20;7.10;;;26.50;86.50;;;;;;5056831;28;20190;-77
2022/05/27 05:32:07;;;;;;;11.13;7.05;;;26.70;86.30;;;;;;5091323;28;20055;-77
2022/05/27 05:34:35;;;;;;;18.38;5.63;;;26.80;86.30;;;;;;5073187;28;20048;-77
2022/05/27 05:37:02;;;;;;;8.85;6.32;;;27.00;85.90;;;;;;5056646;28;20070;-80
2022/05/27 05:39:31;;;;;;;11.43;6.93;;;27.10;84.90;;;;;;5072679;28;20064;-79
2022/05/27 05:42:04;;;;;;;14.80;7.95;;;27.20;84.70;;;;;;5072995;28;20719;-77
2022/05/27 05:44:33;;;;;;;13.05;6.75;;;27.40;84.60;;;;;;5057160;28;20043;-77
2022/05/27 05:47:02;;;;;;;11.80;6.32;;;27.50;83.80;;;;;;5056999;28;20470;-77
2022/05/27 05:49:30;;;;;;;9.98;6.78;;;27.60;82.20;;;;;;5073453;28;20447;-78
2022/05/27 05:51:59;;;;;;;11.60;4.78;;;27.70;79.90;;;;;;5056826;28;20079;-78
2022/05/27 05:54:28;;;;;;;10.73;5.35;;;27.80;78.30;;;;;;5056507;28;20044;-77
2022/05/27 05:57:00;;;;;;;16.65;6.03;;;27.90;78.00;;;;;;5071799;28;20080;-77
2022/05/27 05:59:32;;;;;;;15.05;6.45;;;28.00;79.20;;;;;;5070833;28;20044;-77
2022/05/27 06:02:01;;;;;;;8.85;5.47;;;28.10;78.70;;;;;;5036086;28;20064;-77
2022/05/27 06:04:29;;;;;;;14.15;5.22;;;28.20;76.90;;;;;;5052813;28;20044;-77
2022/05/27 06:06:57;;;;;;;9.93;4.75;;;28.10;74.90;;;;;;5052577;28;20054;-77
2022/05/27 06:09:28;;;;;;;13.30;4.25;;;28.10;69.80;;;;;;5036231;28;20512;-76
2022/05/27 06:11:56;;;;;;;8.40;3.95;;;28.00;69.80;;;;;;5034656;28;20045;-77
2022/05/27 06:14:24;;;;;;;7.70;3.65;;;28.10;68.40;;;;;;5036373;28;20048;-79
2022/05/27 06:16:52;;;;;;;7.25;3.45;;;28.20;69.00;;;;;;5035940;28;20067;-77
2022/05/27 06:19:19;;;;;;;6.28;3.17;;;28.30;67.60;;;;;;5053029;28;20126;-76
2022/05/27 06:21:47;;;;;;;7.57;3.30;;;28.40;67.80;;;;;;5035872;28;20126;-77
2022/05/27 06:24:16;;;;;;;5.22;3.47;;;28.50;68.50;;;;;;5070182;28;20166;-77
2022/05/27 06:26:44;;;;;;;7.57;4.07;;;28.60;69.90;;;;;;5036156;28;20075;-77
2022/05/27 06:34:43;;;;;;;8.43;4.15;;;28.60;71.80;;;;;;5052632;28;19974;-77
2022/05/27 06:37:15;;;;;;;9.73;4.47;;;28.60;72.00;;;;;;5035998;28;20061;-77
2022/05/27 06:39:42;;;;;;;10.23;4.72;;;28.80;72.40;;;;;;5052691;28;20082;-77
2022/05/27 06:42:12;;;;;;;8.77;3.80;;;28.90;72.80;;;;;;5051923;28;20525;-77
2022/05/27 06:44:59;;;;;;;7.25;3.97;;;29.00;74.00;;;;;;5056936;28;20036;-78
2022/05/27 06:47:27;;;;;;;8.93;3.38;;;29.00;71.70;;;;;;5035905;28;20068;-78
2022/05/27 06:49:55;;;;;;;7.90;4.43;;;29.00;71.80;;;;;;5035780;28;20126;-77
2022/05/27 06:52:24;;;;;;;9.50;4.40;;;29.10;72.40;;;;;;5052319;28;20044;-78
2022/05/27 06:54:52;;;;;;;8.43;4.05;;;29.10;71.60;;;;;;5051958;28;20507;-78
2022/05/27 06:57:20;;;;;;;9.13;4.28;;;29.10;71.50;;;;;;5019409;28;20049;-77
2022/05/27 06:59:47;;;;;;;6.97;3.80;;;29.10;71.70;;;;;;5052456;28;20048;-79
2022/05/27 07:02:16;;;;;;;7.90;4.32;;;29.10;71.90;;;;;;5051895;28;20045;-77
2022/05/27 07:04:43;;;;;;;8.98;4.05;;;29.10;72.10;;;;;;5035545;28;20057;-78
2022/05/27 07:07:11;;;;;;;6.82;3.65;;;29.00;72.60;;;;;;5036119;28;20079;-78
2022/05/27 07:09:39;;;;;;;14.15;3.58;;;29.00;72.60;;;;;;5035833;28;20446;-77
2022/05/27 07:12:09;;;;;;;7.03;3.00;;;29.00;72.50;;;;;;5070014;28;20074;-77
2022/05/27 07:14:38;;;;;;;8.70;3.35;;;29.00;72.90;;;;;;5035722;28;20041;-78
2022/05/27 07:17:06;;;;;;;7.78;4.28;;;29.20;72.30;;;;;;5051840;28;20094;-77
2022/05/27 07:19:35;;;;;;;5.88;3.30;;;29.40;72.20;;;;;;5068521;28;20117;-77
2022/05/27 07:22:09;;;;;;;6.93;3.53;;;29.60;72.40;;;;;;5050833;28;20044;-78
2022/05/27 07:24:38;;;;;;;8.45;4.38;;;29.80;71.70;;;;;;5055025;28;20044;-78
2022/05/27 07:27:06;;;;;;;9.45;3.97;;;30.00;71.10;;;;;;5022321;28;20483;-78
2022/05/27 07:29:34;;;;;;;7.15;3.13;;;30.20;71.00;;;;;;5073601;28;20044;-77
2022/05/27 07:32:02;;;;;;;9.07;3.22;;;30.30;70.60;;;;;;5038573;28;20045;-77
2022/05/27 07:34:30;;;;;;;9.90;3.53;;;30.50;70.60;;;;;;5039313;28;20080;-77
2022/05/27 07:36:58;;;;;;;4.45;3.13;;;30.70;70.60;;;;;;5038854;28;20054;-77
2022/05/27 07:39:26;;;;;;;7.78;3.17;;;30.70;69.80;;;;;;5055602;28;20052;-77
2022/05/27 07:41:53;;;;;;;6.38;3.08;;;30.60;69.80;;;;;;5080404;28;20040;-77
2022/05/27 07:44:21;;;;;;;8.07;3.20;;;30.50;70.10;;;;;;5038551;28;20045;-77
2022/05/27 07:46:52;;;;;;;3.90;2.75;;;30.30;69.50;;;;;;5055702;28;20609;-78
2022/05/27 07:49:20;;;;;;;6.57;3.08;;;30.20;69.50;;;;;;5055247;28;20060;-77
2022/05/27 07:52:05;;;;;;;4.82;2.72;;;30.20;69.90;;;;;;5055258;28;20057;-78
2022/05/27 07:54:34;;;;;;;5.13;2.78;;;30.10;69.40;;;;;;5038967;28;20045;-78
2022/05/27 07:57:02;;;;;;;7.25;3.50;;;29.90;68.80;;;;;;5073261;28;20045;-78
2022/05/27 07:59:30;;;;;;;6.32;2.80;;;29.80;68.90;;;;;;5073305;28;20105;-78
2022/05/27 08:01:57;;;;;;;5.65;2.75;;;29.80;69.10;;;;;;5038601;28;20375;-81
2022/05/27 08:04:25;;;;;;;7.80;2.92;;;29.90;69.80;;;;;;5054508;28;20055;-77
2022/05/27 08:06:52;;;;;;;6.00;2.60;;;29.90;70.20;;;;;;5071931;28;20045;-78
2022/05/27 08:09:20;;;;;;;4.93;2.75;;;29.90;70.70;;;;;;5071518;28;20052;-77
2022/05/27 08:11:48;;;;;;;4.13;2.67;;;29.70;70.60;;;;;;5054868;28;20178;-78
2022/05/27 08:14:16;;;;;;;7.53;3.15;;;29.70;70.90;;;;;;5054489;28;20048;-77
2022/05/27 08:16:43;;;;;;;11.23;3.88;;;29.50;71.00;;;;;;5054757;28;20135;-78
2022/05/27 08:19:11;;;;;;;5.35;2.30;;;29.60;71.00;;;;;;5071595;28;20052;-78
2022/05/27 08:21:38;;;;;;;6.90;2.80;;;29.50;72.50;;;;;;5038406;28;20391;-78
2022/05/27 08:24:08;;;;;;;5.85;2.92;;;29.50;74.00;;;;;;5054190;28;20067;-78
2022/05/27 08:26:40;;;;;;;7.43;3.00;;;29.50;76.00;;;;;;5088327;28;20548;-78
2022/05/27 08:29:08;;;;;;;5.95;2.83;;;29.70;76.10;;;;;;5037932;28;20158;-78
2022/05/27 08:31:37;;;;;;;5.45;3.30;;;29.90;75.20;;;;;;5054595;28;20500;-78
2022/05/27 08:39:46;;;;;;;6.85;3.03;;;30.40;73.50;;;;;;5032304;28;20049;-77
2022/05/27 08:42:42;;;;;;;9.40;3.20;;;30.50;72.70;;;;;;5030742;28;20052;-78
2022/05/27 08:45:26;;;;;;;6.72;3.13;;;30.40;71.70;;;;;;5023413;28;20467;-78
2022/05/27 08:47:57;;;;;;;8.32;3.75;;;30.20;71.50;;;;;;5014781;28;20068;-77
2022/05/27 08:50:49;;;;;;;5.97;2.88;;;30.20;72.80;;;;;;5014652;28;20496;-78
2022/05/27 08:53:56;;;;;;;8.32;4.47;;;30.00;72.90;;;;;;5030817;28;20088;-78
2022/05/27 08:59:40;;;;;;;10.27;4.38;;;29.90;74.80;;;;;;5030761;28;20045;-78
2022/05/27 09:02:29;;;;;;;6.45;4.05;;;29.90;74.60;;;;;;5030364;28;20519;-77
2022/05/27 09:05:02;;;;;;;8.75;3.97;;;29.90;74.30;;;;;;5030407;28;20073;-77
2022/05/27 09:07:50;;;;;;;8.05;4.22;;;30.00;75.10;;;;;;5031519;28;20150;-78
2022/05/27 09:10:22;;;;;;;9.07;3.78;;;30.20;75.20;;;;;;5030185;28;20049;-77
2022/05/27 09:12:56;;;;;;;7.72;4.40;;;30.30;76.50;;;;;;5030297;28;20045;-78
2022/05/27 09:15:29;;;;;;;7.05;4.10;;;30.20;77.20;;;;;;5030439;28;20373;-78
2022/05/27 09:18:15;;;;;;;8.73;4.20;;;30.10;76.00;;;;;;5014153;28;20431;-78
2022/05/27 09:21:02;;;;;;;9.82;4.30;;;30.00;78.00;;;;;;5031274;28;20046;-78
2022/05/27 09:23:48;;;;;;;5.05;3.50;;;30.10;77.80;;;;;;5028487;28;20103;-78
2022/05/27 09:26:19;;;;;;;7.03;3.45;;;30.10;77.30;;;;;;5013668;28;20049;-77
2022/05/27 09:29:05;;;;;;;7.00;3.50;;;30.40;78.00;;;;;;5030410;28;20389;-77
2022/05/27 09:31:42;;;;;;;6.35;3.70;;;30.60;77.70;;;;;;4997934;28;20085;-79
2022/05/27 09:34:11;;;;;;;8.63;3.65;;;30.70;77.30;;;;;;5014091;28;20180;-79
2022/05/27 09:36:47;;;;;;;7.68;3.42;;;30.80;77.20;;;;;;5030183;28;20045;-81
2022/05/27 09:39:19;;;;;;;7.10;2.97;;;30.60;75.80;;;;;;5030563;28;20126;-78
2022/05/27 09:42:30;;;;;;;6.25;2.97;;;30.30;75.30;;;;;;5029876;28;20053;-78
2022/05/27 09:44:58;;;;;;;9.23;4.00;;;30.10;76.10;;;;;;4981562;28;20496;-78
2022/05/27 09:47:30;;;;;;;8.20;3.00;;;30.00;76.70;;;;;;5013216;28;20045;-78
2022/05/27 09:50:32;;;;;;;7.47;3.17;;;29.60;77.80;;;;;;5013528;28;20042;-79
2022/05/27 09:53:01;;;;;;;16.15;4.10;;;29.60;78.60;;;;;;5013068;28;20053;-79
2022/05/27 09:55:50;;;;;;;8.55;3.13;;;29.50;76.60;;;;;;4997250;28;20485;-79
2022/05/27 09:58:30;;;;;;;7.85;3.10;;;29.70;76.40;;;;;;5013264;28;20423;-79
2022/05/27 10:00:57;;;;;;;6.20;2.83;;;29.80;76.20;;;;;;5013366;28;20045;-79
2022/05/27 10:03:39;;;;;;;5.60;3.20;;;29.90;75.90;;;;;;5029983;28;20053;-79
2022/05/27 10:06:15;;;;;;;6.40;3.53;;;30.00;75.50;;;;;;5013508;28;20450;-79
2022/05/27 10:08:54;;;;;;;9.18;5.53;;;30.10;76.10;;;;;;5012905;28;20056;-80
2022/05/27 10:11:33;;;;;;;8.68;3.00;;;30.20;76.00;;;;;;5038521;28;20041;-81
2022/05/27 10:14:10;;;;;;;7.65;4.00;;;30.20;75.80;;;;;;5013319;28;20399;-81
2022/05/27 10:16:41;;;;;;;8.35;3.42;;;30.30;75.90;;;;;;5029103;28;20160;-81
2022/05/27 10:19:13;;;;;;;5.85;2.83;;;30.40;76.40;;;;;;5030445;28;20140;-80
2022/05/27 10:22:00;;;;;;;10.10;3.50;;;30.40;76.50;;;;;;5012884;28;20037;-81
2022/05/27 10:24:34;;;;;;;4.10;2.55;;;30.30;76.40;;;;;;5012256;28;20053;-80
2022/05/27 10:27:14;;;;;;;5.53;2.88;;;30.20;74.80;;;;;;4996680;28;20165;-81
2022/05/27 10:30:00;;;;;;;10.57;3.13;;;30.30;75.80;;;;;;4996611;28;20682;-79
2022/05/27 10:32:33;;;;;;;5.13;2.47;;;30.40;75.60;;;;;;4996617;28;20068;-80
2022/05/27 10:35:04;;;;;;;5.90;3.00;;;30.50;74.60;;;;;;5029455;28;20786;-80
2022/05/27 10:37:53;;;;;;;5.32;3.17;;;30.50;74.00;;;;;;5029495;28;20049;-80
2022/05/27 10:40:38;;;;;;;4.20;2.40;;;30.40;73.20;;;;;;5012901;28;20050;-80
2022/05/27 10:43:44;;;;;;;5.80;2.63;;;30.50;74.00;;;;;;4995945;28;20464;-81
2022/05/27 10:46:15;;;;;;;6.80;3.28;;;30.60;74.30;;;;;;5012077;28;20064;-81
2022/05/27 10:48:49;;;;;;;7.32;3.40;;;30.60;73.70;;;;;;4996116;28;20477;-81
2022/05/27 10:51:58;;;;;;;6.65;3.15;;;30.60;73.20;;;;;;5028558;28;20124;-81
2022/05/27 10:55:05;;;;;;;5.65;2.80;;;30.60;73.90;;;;;;5022146;28;20682;-80
2022/05/27 11:04:25;;;;;;;3.35;2.22;;;30.30;73.30;;;;;;4956459;28;20281;-80
2022/05/27 11:07:14;;;;;;;4.65;2.88;;;30.50;73.70;;;;;;5032066;28;20377;-80
2022/05/27 11:09:51;;;;;;;7.43;3.22;;;30.70;72.70;;;;;;5016328;28;20144;-80
2022/05/27 11:16:14;;;;;;;3.90;2.75;;;30.60;70.20;;;;;;5033855;28;20099;-80
2022/05/27 11:18:54;;;;;;;6.25;3.25;;;30.40;67.60;;;;;;5033580;28;20048;-81
2022/05/27 11:21:56;;;;;;;5.18;3.30;;;30.30;68.60;;;;;;5033083;28;20049;-81
2022/05/27 11:24:43;;;;;;;6.05;3.05;;;30.40;68.90;;;;;;5033071;28;20049;-80
2022/05/27 11:27:19;;;;;;;7.97;3.92;;;30.50;68.70;;;;;;5031920;28;20507;-81
2022/05/27 11:29:53;;;;;;;5.78;2.78;;;30.70;69.20;;;;;;5031728;28;20057;-81
2022/05/27 11:32:40;;;;;;;4.80;2.63;;;30.70;69.10;;;;;;5014826;28;20713;-80
2022/05/27 11:35:33;;;;;;;5.05;2.90;;;30.80;68.60;;;;;;5032550;28;20065;-81
2022/05/27 11:38:37;;;;;;;6.30;3.05;;;30.80;68.60;;;;;;5030907;28;20049;-79
2022/05/27 11:41:19;;;;;;;6.05;3.00;;;30.80;68.20;;;;;;5014190;28;20037;-80
2022/05/27 11:43:58;;;;;;;6.53;2.97;;;30.70;68.10;;;;;;5014235;28;20389;-79
2022/05/27 11:47:05;;;;;;;8.05;4.00;;;30.70;67.90;;;;;;5031358;28;20098;-80
2022/05/27 11:49:33;;;;;;;;;;;30.80;67.20;;;;;;5015095;28;20049;-80
2022/05/27 11:52:28;;;;;;;4.03;2.47;;;30.80;66.70;;;;;;5031940;28;19921;-80
2022/05/27 11:55:14;;;;;;;9.13;3.50;;;30.90;66.10;;;;;;5014863;28;20046;-80
2022/05/27 11:57:50;;;;;;;7.20;3.13;;;30.70;65.10;;;;;;5015126;28;20789;-80
2022/05/27 12:00:24;;;;;;;9.27;4.15;;;30.80;65.30;;;;;;4998096;28;20045;-80
2022/05/27 12:03:17;;;;;;;5.43;3.53;;;30.70;64.60;;;;;;5016452;28;20176;-82
2022/05/27 12:05:56;;;;;;;5.15;2.83;;;30.70;64.30;;;;;;5030630;28;20045;-81
2022/05/27 12:08:48;;;;;;;6.13;3.22;;;30.60;64.60;;;;;;5031692;28;20044;-80
2022/05/27 12:11:28;;;;;;;12.00;3.55;;;30.60;65.10;;;;;;5013138;28;20060;-80
2022/05/27 12:14:26;;;;;;;6.90;3.72;;;30.50;64.90;;;;;;5030368;28;20155;-80
2022/05/27 12:16:56;;;;;;;5.45;3.42;;;30.20;65.60;;;;;;5028747;28;20067;-79
2022/05/27 12:19:36;;;;;;;5.65;2.80;;;30.30;65.60;;;;;;5015064;28;20038;-80
2022/05/27 12:22:10;;;;;;;12.05;4.15;;;30.40;65.40;;;;;;5031309;28;20049;-79
2022/05/27 12:24:48;;;;;;;5.63;3.25;;;30.40;64.20;;;;;;5014972;28;20103;-79
2022/05/27 12:27:19;;;;;;;8.43;3.60;;;30.40;64.40;;;;;;5015257;28;20092;-79
2022/05/27 12:29:50;;;;;;;5.55;2.75;;;30.50;65.10;;;;;;5014834;28;20388;-79
2022/05/27 12:32:22;;;;;;;5.97;3.40;;;30.50;65.30;;;;;;5041848;28;20084;-80
2022/05/27 12:34:51;;;;;;;7.70;2.88;;;30.50;64.80;;;;;;5054249;28;20040;-79
2022/05/27 12:37:26;;;;;;;13.23;3.88;;;30.50;65.00;;;;;;5054812;28;20066;-80
2022/05/27 12:40:26;;;;;;;5.75;2.65;;;30.60;64.80;;;;;;5021213;28;20202;-79
2022/05/27 12:42:58;;;;;;;7.18;3.63;;;30.70;64.80;;;;;;5039965;28;20059;-80
2022/05/27 12:45:38;;;;;;;8.05;3.95;;;30.70;64.50;;;;;;5054068;28;20043;-79
2022/05/27 12:48:07;;;;;;;9.32;3.22;;;30.50;63.80;;;;;;5026565;28;20052;-79
2022/05/27 12:50:40;;;;;;;6.85;2.70;;;30.50;64.50;;;;;;5037424;28;20052;-79
2022/05/27 12:53:21;;;;;;;7.03;2.70;;;30.50;65.10;;;;;;5056154;28;20048;-79
2022/05/27 13:02:14;;;;;;;;;;;30.50;65.30;;;;;;5053978;28;20090;-80
2022/05/27 13:04:47;;;;;;;5.40;2.75;;;30.70;65.20;;;;;;5051974;28;20009;-80
2022/05/27 13:07:36;;;;;;;9.52;2.80;;;30.60;64.60;;;;;;5053725;28;20044;-80
2022/05/27 13:10:18;;;;;;;6.13;2.70;;;30.50;64.90;;;;;;5041138;28;20047;-81
2022/05/27 13:12:49;;;;;;;5.22;2.53;;;30.60;65.10;;;;;;5053925;28;20097;-80
2022/05/27 13:15:32;;;;;;;9.23;3.45;;;30.50;64.50;;;;;;5048799;28;20137;-79
2022/05/27 13:18:06;;;;;;;4.85;2.60;;;30.70;64.60;;;;;;5053382;28;20143;-80
2022/05/27 13:21:11;;;;;;;5.80;2.38;;;30.70;64.80;;;;;;5061536;28;20040;-79
2022/05/27 13:24:11;;;;;;;10.55;2.55;;;30.70;65.20;;;;;;5060699;28;20052;-80
2022/05/27 13:26:45;;;;;;;8.10;2.95;;;30.70;65.60;;;;;;5071767;28;20559;-81
2022/05/27 13:29:35;;;;;;;5.68;2.78;;;30.70;65.70;;;;;;5056572;28;20051;-79
2022/05/27 13:32:09;;;;;;;4.68;2.83;;;30.70;65.70;;;;;;5066296;28;20079;-80
2022/05/27 13:35:06;;;;;;;10.10;3.20;;;30.60;65.70;;;;;;4997374;28;20439;-80
2022/05/27 13:37:40;;;;;;;6.43;2.50;;;30.60;65.80;;;;;;5014227;28;20120;-80
2022/05/27 13:40:13;;;;;;;7.03;2.70;;;30.50;65.90;;;;;;5013565;28;20057;-80
2022/05/27 13:42:49;;;;;;;4.88;2.53;;;30.50;65.70;;;;;;5013240;28;20163;-80
2022/05/27 13:45:26;;;;;;;5.72;2.60;;;30.60;65.50;;;;;;5013428;28;20512;-80
2022/05/27 13:48:06;;;;;;;6.28;2.80;;;30.70;65.60;;;;;;5013264;28;20060;-80
2022/05/27 13:50:43;;;;;;;5.47;2.42;;;30.80;65.90;;;;;;5013363;28;20385;-80
2022/05/27 13:53:21;;;;;;;10.48;3.55;;;30.70;65.60;;;;;;5029910;28;20060;-79
2022/05/27 13:55:53;;;;;;;5.80;2.85;;;30.80;65.80;;;;;;5014126;28;20076;-80
2022/05/27 13:58:26;;;;;;;5.07;2.53;;;30.90;66.10;;;;;;5029590;28;20461;-80
2022/05/27 14:01:00;;;;;;;5.60;3.00;;;30.90;65.70;;;;;;5030510;28;20056;-80
2022/05/27 14:03:41;;;;;;;6.38;2.72;;;31.00;65.10;;;;;;5029495;28;20051;-80
2022/05/27 14:06:11;;;;;;;6.10;2.95;;;30.90;64.80;;;;;;5029723;28;20045;-79